createdAt,value
2023-02-24T00:02:20.344Z,6.00
2023-02-24T00:05:08.268Z,6.03
2023-02-24T00:07:49.358Z,6.10
2023-02-24T00:10:30.239Z,6.16
2023-02-24T00:13:12.370Z,6.28
2023-02-24T00:15:53.218Z,6.34
2023-02-24T00:18:41.267Z,6.39
2023-02-24T00:21:17.125Z,6.42
2023-02-24T00:24:06.235Z,6.48
2023-02-24T00:26:41.572Z,6.52
2023-02-24T00:29:48.254Z,6.54
2023-02-24T00:32:30.369Z,6.55
2023-02-24T00:35:12.424Z,6.55
2023-02-24T00:37:58.241Z,6.54
2023-02-24T00:40:41.128Z,6.53
2023-02-24T00:43:22.227Z,6.51
2023-02-24T00:46:10.435Z,6.45
2023-02-24T00:48:46.651Z,6.42
2023-02-24T00:51:37.228Z,6.40
2023-02-24T00:54:15.235Z,6.33
2023-02-24T00:57:03.219Z,6.28
2023-02-24T00:59:45.219Z,6.24
2023-02-24T01:02:26.978Z,6.20
2023-02-24T01:05:16.214Z,6.23
2023-02-24T01:07:59.343Z,6.29
2023-02-24T01:11:14.285Z,6.32
2023-02-24T01:14:02.330Z,6.34
2023-02-24T01:16:37.471Z,6.34
2023-02-24T01:19:27.220Z,6.32
2023-02-24T01:22:09.348Z,6.27
2023-02-24T01:25:04.240Z,6.19
2023-02-24T01:27:52.227Z,6.14
2023-02-24T01:30:27.380Z,6.11
2023-02-24T01:33:15.246Z,6.11
2023-02-24T01:35:50.352Z,6.09
2023-02-24T01:38:38.208Z,6.08
2023-02-24T01:41:16.537Z,6.10
2023-02-24T01:44:05.216Z,6.11
2023-02-24T01:46:41.387Z,6.13
2023-02-24T01:49:45.222Z,6.15
2023-02-24T01:52:30.751Z,6.15
2023-02-24T01:55:27.212Z,6.17
2023-02-24T01:58:04.829Z,6.16
2023-02-24T02:00:54.249Z,6.18
2023-02-24T02:03:38.212Z,6.21
2023-02-24T02:06:33.224Z,6.27
2023-02-24T02:09:22.226Z,6.31
2023-02-24T02:12:04.204Z,6.34
2023-02-24T02:15:02.233Z,6.37
2023-02-24T02:18:02.222Z,6.39
2023-02-24T02:21:09.011Z,6.45
2023-02-24T02:24:11.218Z,6.58
2023-02-24T02:27:36.230Z,6.67
2023-02-24T02:30:36.265Z,6.72
2023-02-24T02:33:52.220Z,6.72
2023-02-24T02:36:58.270Z,6.72
2023-02-24T02:40:23.306Z,6.69
2023-02-24T02:43:17.558Z,6.63
2023-02-24T02:46:16.356Z,6.62
2023-02-24T02:48:58.361Z,6.58
2023-02-24T02:51:55.215Z,6.52
2023-02-24T02:54:33.345Z,6.50
2023-02-24T02:57:25.225Z,6.50
2023-02-24T03:00:11.731Z,6.50
2023-02-24T03:03:04.194Z,6.49
2023-02-24T03:05:46.682Z,6.51
2023-02-24T03:08:37.273Z,6.53
2023-02-24T03:11:22.401Z,6.57
2023-02-24T03:14:12.217Z,6.62
2023-02-24T03:16:56.208Z,6.68
2023-02-24T03:19:46.211Z,6.75
2023-02-24T03:22:44.206Z,6.78
2023-02-24T03:25:28.940Z,6.76
2023-02-24T03:28:24.298Z,6.75
2023-02-24T03:31:07.474Z,6.75
2023-02-24T03:34:18.212Z,6.77
2023-02-24T03:36:54.663Z,6.84
2023-02-24T03:39:43.228Z,6.91
2023-02-24T03:42:19.248Z,6.96
2023-02-24T03:45:07.216Z,7.00
2023-02-24T03:47:41.822Z,6.98
2023-02-24T03:50:38.269Z,6.94
2023-02-24T03:53:22.732Z,6.94
2023-02-24T03:56:18.239Z,6.93
2023-02-24T03:59:18.974Z,6.83
2023-02-24T04:02:32.232Z,6.72
2023-02-24T04:05:15.701Z,6.64
2023-02-24T04:08:14.219Z,6.55
2023-02-24T04:10:54.879Z,6.48
2023-02-24T04:13:57.201Z,6.42
2023-02-24T04:16:40.971Z,6.35
2023-02-24T04:19:34.206Z,6.33
2023-02-24T04:22:32.181Z,6.31
2023-02-24T04:25:31.202Z,6.31
2023-02-24T04:28:13.696Z,6.34
2023-02-24T04:31:04.284Z,6.34
2023-02-24T04:33:38.960Z,6.36
2023-02-24T04:36:27.199Z,6.40
2023-02-24T04:39:01.699Z,6.45
2023-02-24T04:41:50.300Z,6.48
2023-02-24T04:44:26.256Z,6.55
2023-02-24T04:47:14.197Z,6.62
2023-02-24T04:49:55.209Z,6.66
2023-02-24T04:52:36.320Z,6.66
2023-02-24T04:55:17.192Z,6.65
2023-02-24T04:58:04.341Z,6.60
2023-02-24T05:00:48.188Z,6.60
2023-02-24T05:03:31.335Z,6.61
2023-02-24T05:06:13.215Z,6.62
2023-02-24T05:08:54.332Z,6.62
2023-02-24T05:11:41.192Z,6.60
2023-02-24T05:14:25.234Z,6.60
2023-02-24T05:17:13.201Z,6.61
2023-02-24T05:20:13.188Z,6.62
2023-02-24T05:23:01.195Z,6.64
2023-02-24T05:25:37.983Z,6.62
2023-02-24T05:28:29.196Z,6.59
2023-02-24T05:31:22.503Z,6.59
2023-02-24T05:34:00.356Z,6.58
2023-02-24T05:36:53.203Z,6.56
2023-02-24T05:39:35.221Z,6.52
2023-02-24T05:42:17.407Z,6.48
2023-02-24T05:44:58.184Z,6.45
2023-02-24T05:47:40.319Z,6.46
2023-02-24T05:50:21.240Z,6.46
2023-02-24T05:53:03.647Z,6.50
2023-02-24T05:55:45.189Z,6.56
2023-02-24T05:58:29.252Z,6.60
2023-02-24T06:01:23.271Z,6.63
2023-02-24T06:04:14.176Z,6.68
2023-02-24T06:06:55.246Z,6.72
2023-02-24T06:09:47.187Z,6.70
2023-02-24T06:12:23.440Z,6.71
2023-02-24T06:15:14.228Z,6.76
2023-02-24T06:18:09.165Z,6.80
2023-02-24T06:20:58.190Z,6.90
2023-02-24T06:23:56.179Z,7.01
2023-02-24T06:26:50.198Z,7.04
2023-02-24T06:29:29.847Z,7.07
2023-02-24T06:32:19.294Z,7.12
2023-02-24T06:34:54.364Z,7.13
2023-02-24T06:37:42.336Z,7.21
2023-02-24T06:40:18.392Z,7.28
2023-02-24T06:43:06.236Z,7.32
2023-02-24T06:45:48.202Z,7.35
2023-02-24T06:48:43.181Z,7.34
2023-02-24T06:51:31.158Z,7.37
2023-02-24T06:54:06.451Z,7.40
2023-02-24T06:56:54.185Z,7.42
2023-02-24T06:59:35.186Z,7.46
2023-02-24T07:02:24.173Z,7.46
2023-02-24T07:04:59.318Z,7.47
2023-02-24T07:07:52.172Z,7.54
2023-02-24T07:10:27.380Z,7.60
2023-02-24T07:13:16.195Z,7.67
2023-02-24T07:15:51.323Z,7.78
2023-02-24T07:18:43.153Z,7.96
2023-02-24T07:21:30.207Z,8.11
2023-02-24T07:24:13.725Z,8.27
2023-02-24T07:27:01.198Z,8.37
2023-02-24T07:29:44.193Z,8.46
2023-02-24T07:32:25.782Z,8.54
2023-02-24T07:35:07.182Z,8.60
2023-02-24T07:37:57.156Z,8.65
2023-02-24T07:40:43.172Z,8.70
2023-02-24T07:43:24.390Z,8.74
2023-02-24T07:46:05.247Z,8.75
2023-02-24T07:48:47.298Z,8.82
2023-02-24T07:51:31.189Z,8.87
2023-02-24T07:54:13.100Z,8.90
2023-02-24T07:57:03.232Z,8.88
2023-02-24T07:59:54.190Z,8.78
2023-02-24T08:02:29.493Z,8.69
2023-02-24T08:05:17.217Z,8.65
2023-02-24T08:07:59.163Z,8.58
2023-02-24T08:10:41.101Z,8.52
2023-02-24T08:13:22.180Z,8.50
2023-02-24T08:16:03.366Z,8.41
2023-02-24T08:18:47.407Z,8.29
2023-02-24T08:21:28.377Z,8.16
2023-02-24T08:24:11.193Z,8.05
2023-02-24T08:27:13.263Z,7.99
2023-02-24T08:30:04.128Z,8.02
2023-02-24T08:32:59.161Z,8.09
2023-02-24T08:35:43.143Z,8.12
2023-02-24T08:38:39.788Z,8.19
2023-02-24T08:41:24.471Z,8.28
2023-02-24T08:44:05.300Z,8.38
2023-02-24T08:46:47.174Z,8.45
2023-02-24T08:49:40.240Z,8.58
2023-02-24T08:52:14.681Z,8.71
2023-02-24T08:55:06.185Z,8.88
2023-02-24T08:57:47.168Z,8.96
2023-02-24T09:00:48.254Z,8.98
2023-02-24T09:03:40.181Z,8.98
2023-02-24T09:06:27.351Z,9.02
2023-02-24T09:09:24.194Z,9.08
2023-02-24T09:12:06.305Z,9.18
2023-02-24T09:14:49.158Z,9.26
2023-02-24T09:17:41.092Z,9.27
2023-02-24T09:20:32.161Z,9.21
2023-02-24T09:23:07.858Z,9.12
2023-02-24T09:26:01.157Z,9.08
2023-02-24T09:28:48.863Z,9.15
2023-02-24T09:31:47.409Z,9.24
2023-02-24T09:34:30.238Z,9.28
2023-02-24T09:37:32.199Z,9.33
2023-02-24T09:40:16.285Z,9.32
2023-02-24T09:43:05.269Z,9.35
2023-02-24T09:45:40.527Z,9.35
2023-02-24T09:48:51.283Z,9.34
2023-02-24T09:51:49.250Z,9.30
2023-02-24T09:54:24.851Z,9.28
2023-02-24T09:57:18.192Z,9.26
2023-02-24T10:00:30.263Z,9.24
2023-02-24T10:03:27.163Z,9.23
2023-02-24T10:06:12.456Z,9.28
2023-02-24T10:09:18.164Z,9.32
2023-02-24T10:12:04.533Z,9.33
2023-02-24T10:15:25.169Z,9.34
2023-02-24T10:18:53.223Z,9.39
2023-02-24T10:22:07.162Z,9.43
2023-02-24T10:25:01.719Z,9.48
2023-02-24T10:27:52.261Z,9.48
2023-02-24T10:30:50.401Z,9.51
2023-02-24T10:33:45.265Z,9.55
2023-02-24T10:36:42.144Z,9.57
2023-02-24T10:39:40.161Z,9.62
2023-02-24T10:42:38.156Z,9.77
2023-02-24T10:45:24.024Z,9.99
2023-02-24T10:48:15.517Z,10.19
2023-02-24T10:51:15.463Z,10.26
2023-02-24T10:54:21.174Z,10.29
2023-02-24T10:57:08.298Z,10.41
2023-02-24T11:00:58.229Z,10.54
2023-02-24T11:03:43.365Z,10.72
2023-02-24T11:06:47.156Z,10.87
2023-02-24T11:09:32.422Z,11.17
2023-02-24T11:12:46.145Z,11.37
2023-02-24T11:15:50.898Z,11.47
2023-02-24T11:18:40.307Z,11.64
2023-02-24T11:21:19.703Z,11.84
2023-02-24T11:24:09.136Z,12.17
2023-02-24T11:27:05.303Z,12.51
2023-02-24T11:29:56.138Z,12.73
2023-02-24T11:32:49.973Z,12.74
2023-02-24T11:35:55.136Z,12.69
2023-02-24T11:39:08.369Z,12.78
2023-02-24T11:42:14.774Z,12.94
2023-02-24T11:45:05.139Z,13.18
2023-02-24T11:47:50.855Z,13.38
2023-02-24T11:50:56.214Z,13.37
2023-02-24T11:53:58.304Z,13.29
2023-02-24T11:57:06.138Z,13.14
2023-02-24T11:59:58.141Z,12.90
2023-02-24T12:02:51.167Z,12.68
2023-02-24T12:05:37.288Z,12.52
2023-02-24T12:08:38.151Z,12.47
2023-02-24T12:11:54.335Z,12.70
2023-02-24T12:14:41.166Z,12.96
2023-02-24T12:17:47.395Z,13.24
2023-02-24T12:20:55.251Z,13.28
2023-02-24T12:23:41.339Z,13.37
2023-02-24T12:26:32.253Z,13.47
2023-02-24T12:29:42.750Z,13.68
2023-02-24T12:32:37.859Z,13.73
2023-02-24T12:35:36.143Z,13.46
2023-02-24T12:38:39.139Z,13.14
2023-02-24T12:41:39.151Z,12.76
2023-02-24T12:44:33.151Z,12.49
2023-02-24T12:47:28.132Z,12.30
2023-02-24T12:50:23.864Z,12.18
2023-02-24T12:53:38.218Z,12.03
2023-02-24T12:56:41.155Z,12.03
2023-02-24T12:59:32.164Z,12.17
2023-02-24T13:02:12.016Z,12.20
2023-02-24T13:05:12.152Z,12.14
2023-02-24T13:08:16.241Z,12.03
2023-02-24T13:11:32.232Z,11.94
2023-02-24T13:14:31.145Z,11.88
2023-02-24T13:17:17.829Z,11.74
2023-02-24T13:20:01.148Z,11.60
2023-02-24T13:22:56.125Z,11.47
2023-02-24T13:25:49.138Z,11.54
2023-02-24T13:28:44.152Z,11.65
2023-02-24T13:31:23.897Z,11.72
2023-02-24T13:34:36.139Z,11.78
2023-02-24T13:37:11.672Z,11.83
2023-02-24T13:39:59.657Z,11.84
2023-02-24T13:42:38.270Z,11.83
2023-02-24T13:45:28.132Z,11.75
2023-02-24T13:48:02.260Z,11.67
2023-02-24T13:51:25.193Z,11.62
2023-02-24T13:54:32.127Z,11.60
2023-02-24T13:57:44.141Z,11.57
2023-02-24T14:00:32.696Z,11.65
2023-02-24T14:03:23.148Z,12.06
2023-02-24T14:06:05.323Z,12.41
2023-02-24T14:08:46.143Z,12.51
2023-02-24T14:11:31.352Z,12.62
2023-02-24T14:14:12.357Z,12.84
2023-02-24T14:16:58.678Z,12.81
2023-02-24T14:19:40.264Z,12.82
2023-02-24T14:22:34.348Z,13.36
2023-02-24T14:25:25.339Z,13.55
2023-02-24T14:28:13.129Z,12.87
2023-02-24T14:30:48.458Z,12.26
2023-02-24T14:33:40.258Z,11.86
2023-02-24T14:36:32.183Z,11.62
2023-02-24T14:39:25.283Z,11.43
2023-02-24T14:42:14.593Z,11.31
2023-02-24T14:45:04.217Z,11.33
2023-02-24T14:47:39.318Z,11.28
2023-02-24T14:50:33.212Z,11.15
2023-02-24T14:53:15.482Z,11.14
2023-02-24T14:56:07.419Z,11.26
2023-02-24T14:58:47.958Z,11.47
2023-02-24T15:01:49.754Z,11.47
2023-02-24T15:04:37.199Z,11.30
2023-02-24T15:08:01.574Z,11.14
2023-02-24T15:11:00.253Z,10.97
2023-02-24T15:13:59.233Z,10.88
2023-02-24T15:16:42.558Z,10.79
2023-02-24T15:20:01.674Z,10.66
2023-02-24T15:23:03.216Z,10.54
2023-02-24T15:25:59.240Z,10.42
2023-02-24T15:28:47.206Z,10.31
2023-02-24T15:31:33.304Z,10.23
2023-02-24T15:34:33.154Z,10.12
2023-02-24T15:37:31.110Z,10.02
2023-02-24T15:40:21.005Z,9.98
2023-02-24T15:43:17.286Z,9.92
2023-02-24T15:45:59.114Z,9.87
2023-02-24T15:48:57.120Z,9.88
2023-02-24T15:51:54.319Z,9.89
2023-02-24T15:54:43.350Z,9.87
2023-02-24T15:57:38.269Z,9.81
2023-02-24T16:00:30.128Z,9.69
2023-02-24T16:03:12.119Z,9.57
2023-02-24T16:06:07.188Z,9.42
2023-02-24T16:08:56.277Z,9.27
2023-02-24T16:11:34.303Z,9.13
2023-02-24T16:14:24.185Z,9.02
2023-02-24T16:17:06.579Z,8.92
2023-02-24T16:19:48.339Z,8.82
2023-02-24T16:22:30.252Z,8.70
2023-02-24T16:25:12.120Z,8.60
2023-02-24T16:27:57.524Z,8.51
2023-02-24T16:30:39.223Z,8.44
2023-02-24T16:33:23.916Z,8.36
2023-02-24T16:36:06.774Z,8.28
2023-02-24T16:38:53.408Z,8.16
2023-02-24T16:41:36.126Z,8.03
2023-02-24T16:44:24.117Z,7.95
2023-02-24T16:47:05.129Z,7.81
2023-02-24T16:49:47.267Z,7.66
2023-02-24T16:52:30.193Z,7.51
2023-02-24T16:55:13.948Z,7.43
2023-02-24T16:57:55.094Z,7.38
2023-02-24T17:00:43.157Z,7.33
2023-02-24T17:03:22.728Z,7.28
2023-02-24T17:06:11.151Z,7.25
2023-02-24T17:08:47.925Z,7.24
2023-02-24T17:11:43.238Z,7.24
2023-02-24T17:14:27.117Z,7.23
2023-02-24T17:17:15.380Z,7.21
2023-02-24T17:19:58.195Z,7.19
2023-02-24T17:22:40.343Z,7.19
2023-02-24T17:25:25.176Z,7.17
2023-02-24T17:28:08.332Z,7.13
2023-02-24T17:30:49.237Z,7.10
2023-02-24T17:33:30.776Z,7.09
2023-02-24T17:36:13.120Z,7.10
2023-02-24T17:38:56.473Z,7.12
2023-02-24T17:41:39.173Z,7.14
2023-02-24T17:44:20.300Z,7.15
2023-02-24T17:47:01.198Z,7.18
2023-02-24T17:49:42.261Z,7.28
2023-02-24T17:52:24.113Z,7.32
2023-02-24T17:55:13.333Z,7.34
2023-02-24T17:57:47.576Z,7.33
2023-02-24T18:00:36.975Z,7.32
2023-02-24T18:03:12.399Z,7.30
2023-02-24T18:06:01.140Z,7.31
2023-02-24T18:08:44.102Z,7.30
2023-02-24T18:11:35.483Z,7.33
2023-02-24T18:14:13.411Z,7.33
2023-02-24T18:17:07.252Z,7.33
2023-02-24T18:19:49.981Z,7.36
2023-02-24T18:22:33.265Z,7.38
2023-02-24T18:25:21.215Z,7.40
2023-02-24T18:28:04.251Z,7.43
2023-02-24T18:30:46.339Z,7.43
2023-02-24T18:33:41.624Z,7.43
2023-02-24T18:36:19.934Z,7.44
2023-02-24T18:39:11.103Z,7.38
2023-02-24T18:41:45.614Z,7.35
2023-02-24T18:44:33.203Z,7.34
2023-02-24T18:47:10.337Z,7.30
2023-02-24T18:49:59.492Z,7.24
2023-02-24T18:52:34.987Z,7.14
2023-02-24T18:55:27.572Z,7.06
2023-02-24T18:58:02.997Z,7.03
2023-02-24T19:00:59.404Z,7.01
2023-02-24T19:03:41.151Z,6.99
2023-02-24T19:06:23.673Z,6.97
2023-02-24T19:09:16.200Z,6.98
2023-02-24T19:12:05.220Z,6.98
2023-02-24T19:14:46.220Z,7.00
2023-02-24T19:17:27.583Z,7.11
2023-02-24T19:20:09.136Z,7.23
2023-02-24T19:22:52.631Z,7.31
2023-02-24T19:25:35.164Z,7.35
2023-02-24T19:28:16.824Z,7.29
2023-02-24T19:32:15.245Z,7.22
2023-02-24T19:34:50.560Z,7.18
2023-02-24T19:37:38.100Z,7.21
2023-02-24T19:40:13.032Z,7.26
2023-02-24T19:43:01.134Z,7.31
2023-02-24T19:45:35.896Z,7.35
2023-02-24T19:48:24.163Z,7.37
2023-02-24T19:50:58.549Z,7.37
2023-02-24T19:53:46.097Z,7.35
2023-02-24T19:56:33.212Z,7.36
2023-02-24T19:59:22.103Z,7.39
2023-02-24T20:01:56.725Z,7.43
2023-02-24T20:04:46.369Z,7.52
2023-02-24T20:07:29.410Z,7.60
2023-02-24T20:10:13.530Z,7.65
2023-02-24T20:12:59.168Z,7.70
2023-02-24T20:15:43.246Z,7.76
2023-02-24T20:18:25.098Z,7.82
2023-02-24T20:21:14.157Z,7.82
2023-02-24T20:23:48.520Z,7.79
2023-02-24T20:26:36.124Z,7.71
2023-02-24T20:29:11.628Z,7.54
2023-02-24T20:32:00.226Z,7.35
2023-02-24T20:34:36.995Z,7.19
2023-02-24T20:37:26.218Z,7.10
2023-02-24T20:40:00.506Z,7.08
2023-02-24T20:42:48.088Z,7.09
2023-02-24T20:45:36.098Z,7.11
2023-02-24T20:48:11.227Z,7.08
2023-02-24T20:50:59.084Z,7.02
2023-02-24T20:53:36.418Z,6.93
2023-02-24T20:56:29.089Z,6.86
2023-02-24T20:59:06.266Z,6.82
2023-02-24T21:01:55.718Z,6.85
2023-02-24T21:04:37.145Z,6.91
2023-02-24T21:07:32.198Z,6.97
2023-02-24T21:10:29.096Z,7.03
2023-02-24T21:13:17.209Z,7.03
2023-02-24T21:16:06.176Z,6.97
2023-02-24T21:19:03.195Z,6.90
2023-02-24T21:21:51.089Z,6.79
2023-02-24T21:24:26.207Z,6.74
2023-02-24T21:27:14.089Z,6.71
2023-02-24T21:29:49.215Z,6.69
2023-02-24T21:32:37.174Z,6.67
2023-02-24T21:35:12.797Z,6.65
2023-02-24T21:38:01.068Z,6.62
2023-02-24T21:40:42.087Z,6.57
2023-02-24T21:43:37.068Z,6.46
2023-02-24T21:46:25.433Z,6.42
2023-02-24T21:49:02.269Z,6.41
2023-02-24T21:51:50.125Z,6.44
2023-02-24T21:54:33.220Z,6.50
2023-02-24T21:57:28.144Z,6.58
2023-02-24T22:00:25.082Z,6.66
2023-02-24T22:03:08.148Z,6.73
2023-02-24T22:06:03.086Z,6.80
2023-02-24T22:08:52.072Z,6.80
2023-02-24T22:11:28.254Z,6.80
2023-02-24T22:14:18.270Z,6.81
2023-02-24T22:17:00.268Z,6.83
2023-02-24T22:19:55.078Z,6.83
2023-02-24T22:22:47.168Z,6.79
2023-02-24T22:25:25.034Z,6.73
2023-02-24T22:28:14.081Z,6.69
2023-02-24T22:30:56.195Z,6.68
2023-02-24T22:33:49.080Z,6.71
2023-02-24T22:36:29.256Z,6.76
2023-02-24T22:39:17.196Z,6.83
2023-02-24T22:41:52.434Z,6.88
2023-02-24T22:44:41.092Z,6.93
2023-02-24T22:47:17.125Z,6.97
2023-02-24T22:50:05.116Z,7.01
2023-02-24T22:52:47.083Z,7.08
2023-02-24T22:55:42.066Z,7.12
2023-02-24T22:58:31.090Z,7.13
2023-02-24T23:01:06.251Z,7.15
2023-02-24T23:03:54.157Z,7.21
2023-02-24T23:06:38.076Z,7.24
2023-02-24T23:09:33.089Z,7.24
2023-02-24T23:12:22.080Z,7.26
2023-02-24T23:14:57.190Z,7.29
2023-02-24T23:17:45.092Z,7.38
2023-02-24T23:20:20.211Z,7.53
2023-02-24T23:23:09.282Z,7.65
2023-02-24T23:25:52.271Z,7.76
2023-02-24T23:28:42.137Z,7.85
2023-02-24T23:31:17.328Z,7.86
2023-02-24T23:34:05.059Z,7.84
2023-02-24T23:36:56.084Z,7.82
2023-02-24T23:39:30.464Z,7.82
2023-02-24T23:42:18.084Z,7.79
2023-02-24T23:44:52.908Z,7.74
2023-02-24T23:47:41.065Z,7.59
2023-02-24T23:50:22.216Z,7.39
2023-02-24T23:53:05.240Z,7.19
2023-02-24T23:55:47.072Z,7.07
2023-02-24T23:58:35.062Z,6.99
